Time;durP1;ratioP1;P1;durP2;ratioP2;P2;SDS_P1;SDS_P2;PMS_P1;PMS_P2;Temp;Humidity;BMP_temperature;BMP_pressure;BME280_temperature;BME280_humidity;BME280_pressure;Samples;Min_cycle;Max_cycle;Signal;HPM_P1;HPM_P2
2022/10/06 00:02:10;;;;;;;3.45;2.40;;;;;;;14.12;nan;101229.31;5038060;28;20125;-67
2022/10/06 00:04:36;;;;;;;2.95;2.17;;;;;;;14.00;nan;101234.06;5035376;28;20044;-67
2022/10/06 00:07:01;;;;;;;2.78;2.10;;;;;;;13.93;nan;101242.84;5027528;28;20033;-67
2022/10/06 00:09:26;;;;;;;4.75;2.80;;;;;;;13.86;nan;101242.63;5034039;28;20037;-67
2022/10/06 00:11:52;;;;;;;4.72;2.80;;;;;;;13.85;nan;101240.09;5040138;28;20029;-67
2022/10/06 00:14:17;;;;;;;4.68;2.45;;;;;;;13.88;nan;101238.00;5035803;28;20037;-67
2022/10/06 00:16:43;;;;;;;4.47;2.87;;;;;;;13.89;nan;101244.97;5044710;28;20036;-67
2022/10/06 00:19:08;;;;;;;5.93;2.40;;;;;;;13.89;nan;101254.75;5025470;28;20285;-67
2022/10/06 00:21:33;;;;;;;5.55;2.50;;;;;;;13.90;nan;101251.13;5011643;28;20042;-67
2022/10/06 00:23:58;;;;;;;3.42;2.20;;;;;;;13.96;nan;101253.16;5027293;28;20037;-67
2022/10/06 00:26:24;;;;;;;3.45;2.10;;;;;;;14.05;nan;101249.56;5041193;28;20668;-67
2022/10/06 00:28:49;;;;;;;3.08;2.13;;;;;;;14.11;nan;101246.28;5033667;28;20246;-67
2022/10/06 00:31:18;;;;;;;3.00;1.90;;;;;;;14.12;nan;101241.78;5036614;28;20103;-67
2022/10/06 00:33:43;;;;;;;2.78;1.95;;;;;;;14.11;nan;101243.63;5036220;28;20052;-67
2022/10/06 00:36:08;;;;;;;3.70;2.20;;;;;;;14.18;nan;101234.03;5035454;28;20056;-67
2022/10/06 00:38:34;;;;;;;5.45;2.55;;;;;;;14.29;nan;101237.41;5036783;28;20041;-67
2022/10/06 00:40:59;;;;;;;3.63;2.15;;;;;;;14.38;nan;101245.25;5042702;28;20104;-67
2022/10/06 00:43:42;;;;;;;6.30;3.10;;;;;;;14.45;nan;101251.59;5031940;28;20037;-67
2022/10/06 00:46:19;;;;;;;4.20;2.45;;;;;;;14.54;nan;101265.81;5030791;28;20041;-67
2022/10/06 00:48:47;;;;;;;5.22;2.83;;;;;;;14.64;nan;101255.06;5030937;28;20041;-67
2022/10/06 00:51:13;;;;;;;4.20;2.58;;;;;;;14.71;nan;101257.91;5036075;28;20061;-67
2022/10/06 00:53:39;;;;;;;3.65;2.30;;;;;;;14.76;nan;101256.41;5038948;28;20072;-67
2022/10/06 00:56:04;;;;;;;4.72;2.72;;;;;;;14.80;nan;101256.91;5035426;28;20037;-67
2022/10/06 00:58:30;;;;;;;5.47;2.60;;;;;;;14.86;nan;101261.59;5039099;28;20056;-67
2022/10/06 01:00:58;;;;;;;4.47;2.80;;;;;;;14.92;nan;101260.97;5041256;28;20049;-67
2022/10/06 01:03:28;;;;;;;4.15;2.70;;;;;;;14.95;nan;101265.13;5039309;28;20045;-67
2022/10/06 01:05:55;;;;;;;5.00;2.80;;;;;;;14.97;nan;101277.28;5028342;28;20117;-67
2022/10/06 01:08:22;;;;;;;3.65;2.53;;;;;;;15.00;nan;101276.97;5039464;28;20544;-67
2022/10/06 01:10:47;;;;;;;4.35;2.20;;;;;;;14.97;nan;101287.09;5041844;28;20226;-67
2022/10/06 01:13:13;;;;;;;3.05;2.20;;;;;;;14.93;nan;101307.06;5039210;28;20041;-67
2022/10/06 01:15:45;;;;;;;4.25;2.55;;;;;;;14.81;nan;101306.53;5027573;28;20029;-67
2022/10/06 01:18:13;;;;;;;6.53;3.05;;;;;;;14.69;nan;101313.97;5046282;28;20032;-67
2022/10/06 01:20:48;;;;;;;3.22;2.15;;;;;;;14.58;nan;101309.75;5045206;28;20040;-67
2022/10/06 01:23:15;;;;;;;3.55;2.20;;;;;;;14.53;nan;101306.69;5044935;28;20041;-67
2022/10/06 01:25:41;;;;;;;2.88;1.80;;;;;;;14.49;nan;101301.84;5027905;28;20030;-67
2022/10/06 01:28:07;;;;;;;2.58;1.80;;;;;;;14.43;nan;101298.00;5044669;28;20456;-67
2022/10/06 01:30:53;;;;;;;4.78;2.00;;;;;;;14.36;nan;101307.59;5030141;28;20029;-67
2022/10/06 01:33:20;;;;;;;3.78;2.33;;;;;;;14.34;nan;101315.72;5035574;28;20069;-67
2022/10/06 01:35:48;;;;;;;4.07;2.50;;;;;;;14.31;nan;101318.72;5029679;28;20037;-67
2022/10/06 01:38:14;;;;;;;2.92;2.20;;;;;;;14.31;nan;101325.88;5034782;28;20041;-67
2022/10/06 01:40:39;;;;;;;4.38;2.33;;;;;;;14.40;nan;101320.44;5049307;28;20041;-67
2022/10/06 01:43:05;;;;;;;4.45;2.35;;;;;;;14.56;nan;101321.53;5039260;28;20037;-67
2022/10/06 01:45:30;;;;;;;5.07;2.90;;;;;;;14.65;nan;101325.91;5042531;28;20056;-67
2022/10/06 01:47:56;;;;;;;3.47;2.60;;;;;;;14.69;nan;101332.59;5034728;28;20328;-67
2022/10/06 01:50:21;;;;;;;3.20;2.20;;;;;;;14.72;nan;101337.59;5040863;28;20041;-67
2022/10/06 01:52:46;;;;;;;3.13;2.37;;;;;;;14.74;nan;101340.09;5035843;28;20064;-67
2022/10/06 01:55:13;;;;;;;3.53;1.98;;;;;;;14.79;nan;101345.78;5041769;28;20554;-67
2022/10/06 01:57:40;;;;;;;3.92;2.42;;;;;;;14.78;nan;101338.81;5036745;28;20094;-67
2022/10/06 02:00:06;;;;;;;2.67;2.00;;;;;;;14.72;nan;101342.91;5040493;28;20112;-67
2022/10/06 02:02:31;;;;;;;2.75;1.98;;;;;;;14.66;nan;101346.22;5042918;28;20114;-67
2022/10/06 02:04:56;;;;;;;2.83;2.15;;;;;;;14.56;nan;101343.69;5036609;28;20208;-67
2022/10/06 02:07:22;;;;;;;4.20;2.53;;;;;;;14.54;nan;101343.00;5032373;28;20094;-67
2022/10/06 02:09:47;;;;;;;4.00;2.60;;;;;;;14.57;nan;101349.84;5039504;28;20305;-67
2022/10/06 02:12:13;;;;;;;4.78;2.60;;;;;;;14.62;nan;101344.88;5046170;28;20283;-67
2022/10/06 02:14:38;;;;;;;4.00;2.70;;;;;;;14.70;nan;101347.56;5041686;28;20620;-67
2022/10/06 02:17:03;;;;;;;4.03;2.63;;;;;;;14.75;nan;101344.44;5032823;28;20037;-67
2022/10/06 02:19:28;;;;;;;3.55;2.22;;;;;;;14.82;nan;101350.78;5044357;28;20041;-67
2022/10/06 02:21:54;;;;;;;5.83;2.40;;;;;;;14.86;nan;101355.63;5043480;28;20482;-67
2022/10/06 02:24:20;;;;;;;4.22;2.45;;;;;;;14.92;nan;101359.50;5037487;28;20353;-67
2022/10/06 02:26:45;;;;;;;3.85;2.60;;;;;;;14.97;nan;101373.19;5042388;28;20111;-67
2022/10/06 02:29:10;;;;;;;4.85;2.72;;;;;;;15.03;nan;101377.00;5040695;28;20715;-67
2022/10/06 02:31:36;;;;;;;3.50;2.42;;;;;;;15.06;nan;101366.03;5040831;28;20033;-67
2022/10/06 02:34:01;;;;;;;3.83;2.60;;;;;;;15.11;nan;101376.22;5045112;28;20029;-67
2022/10/06 02:36:26;;;;;;;3.65;2.38;;;;;;;15.17;nan;101373.75;5039762;28;20710;-67
2022/10/06 02:38:53;;;;;;;6.70;2.67;;;;;;;15.21;nan;101383.09;5045573;28;20044;-66
2022/10/06 02:41:18;;;;;;;3.90;2.60;;;;;;;15.25;nan;101381.78;5039854;28;20335;-67
2022/10/06 02:43:44;;;;;;;4.82;2.63;;;;;;;15.29;nan;101382.28;5044642;28;20041;-67
2022/10/06 02:46:12;;;;;;;3.95;2.30;;;;;;;15.33;nan;101396.13;5042147;28;20063;-67
2022/10/06 02:48:39;;;;;;;3.50;2.45;;;;;;;15.36;nan;101396.63;5030776;28;20041;-67
2022/10/06 02:51:07;;;;;;;4.20;2.40;;;;;;;15.40;nan;101400.63;5046856;28;20328;-67
2022/10/06 02:53:33;;;;;;;5.13;2.88;;;;;;;15.45;nan;101414.31;5021402;28;20081;-67
2022/10/06 02:56:09;;;;;;;4.57;2.60;;;;;;;15.50;nan;101419.97;5046736;28;20508;-67
2022/10/06 02:58:35;;;;;;;3.83;2.58;;;;;;;15.55;nan;101419.50;5015169;28;20068;-67
2022/10/06 03:01:01;;;;;;;5.00;2.45;;;;;;;15.58;nan;101421.00;5040887;28;20068;-67
2022/10/06 03:03:26;;;;;;;4.28;2.80;;;;;;;15.61;nan;101426.88;5028714;28;20041;-67
2022/10/06 03:06:23;;;;;;;3.83;2.67;;;;;;;15.63;nan;101442.69;5027011;28;20090;-67
2022/10/06 03:08:57;;;;;;;6.85;3.45;;;;;;;15.65;nan;101441.50;5019141;28;20041;-67
2022/10/06 03:11:32;;;;;;;5.70;3.50;;;;;;;15.60;nan;101459.00;5035772;28;20037;-67
2022/10/06 03:13:58;;;;;;;3.72;2.50;;;;;;;15.59;nan;101468.84;5033253;28;20033;-67
2022/10/06 03:16:25;;;;;;;4.28;2.88;;;;;;;15.59;nan;101478.66;5026637;28;20103;-67
2022/10/06 03:18:52;;;;;;;3.58;2.47;;;;;;;15.58;nan;101487.66;5034495;28;20037;-67
2022/10/06 03:21:20;;;;;;;5.28;2.72;;;;;;;15.58;nan;101482.31;5029805;28;20047;-67
2022/10/06 03:23:48;;;;;;;4.70;2.53;;;;;;;15.58;nan;101477.81;5035264;28;20033;-67
2022/10/06 03:26:16;;;;;;;4.88;2.40;;;;;;;15.60;nan;101478.50;5033590;28;20064;-67
2022/10/06 03:28:42;;;;;;;5.35;3.00;;;;;;;15.61;nan;101482.84;5036163;28;20446;-67
2022/10/06 03:31:07;;;;;;;4.68;2.15;;;;;;;15.63;nan;101490.66;5034923;28;20056;-67
2022/10/06 03:33:33;;;;;;;3.05;2.00;;;;;;;15.63;nan;101496.00;5036209;28;20041;-67
2022/10/06 03:36:13;;;;;;;2.60;1.73;;;;;;;15.62;nan;101505.84;5032150;28;20631;-67
2022/10/06 03:38:39;;;;;;;4.18;2.38;;;;;;;15.62;nan;101507.69;5029441;28;20056;-67
2022/10/06 03:41:12;;;;;;;3.85;2.20;;;;;;;15.61;nan;101505.97;5033897;28;20505;-67
2022/10/06 03:43:38;;;;;;;3.58;2.40;;;;;;;15.61;nan;101501.50;5035732;28;20033;-67
2022/10/06 03:46:05;;;;;;;3.47;1.80;;;;;;;15.63;nan;101510.16;5021480;28;20037;-67
2022/10/06 03:48:32;;;;;;;2.20;1.60;;;;;;;15.65;nan;101518.84;5038447;28;20037;-67
2022/10/06 03:51:03;;;;;;;2.35;1.50;;;;;;;15.65;nan;101534.84;5038602;28;20041;-67
2022/10/06 03:53:29;;;;;;;2.42;1.75;;;;;;;15.63;nan;101530.66;5041765;28;20033;-67
2022/10/06 03:56:07;;;;;;;4.25;2.42;;;;;;;15.63;nan;101534.16;5041450;28;20172;-67
2022/10/06 03:58:38;;;;;;;4.55;2.55;;;;;;;15.64;nan;101540.34;5027305;28;20029;-67
2022/10/06 04:01:09;;;;;;;5.00;2.00;;;;;;;15.63;nan;101546.66;5033964;28;20438;-67
2022/10/06 04:03:35;;;;;;;3.47;1.85;;;;;;;15.64;nan;101546.50;5028010;28;20032;-67
2022/10/06 04:06:05;;;;;;;2.80;1.75;;;;;;;15.66;nan;101546.31;5028512;28;20116;-67
2022/10/06 04:08:32;;;;;;;2.95;1.73;;;;;;;15.63;nan;101547.47;5038276;28;20029;-67
2022/10/06 04:11:15;;;;;;;4.47;2.22;;;;;;;15.63;nan;101552.81;5029623;28;20041;-67
2022/10/06 04:13:42;;;;;;;4.57;2.00;;;;;;;15.62;nan;101553.81;5028711;28;20398;-67
2022/10/06 04:16:22;;;;;;;3.30;1.60;;;;;;;15.64;nan;101561.69;5043138;28;20041;-67
2022/10/06 04:18:51;;;;;;;2.15;1.40;;;;;;;15.62;nan;101553.81;5040653;28;20268;-67
2022/10/06 04:21:16;;;;;;;2.25;1.25;;;;;;;15.61;nan;101565.50;5044930;28;20467;-67
2022/10/06 04:23:41;;;;;;;2.78;1.73;;;;;;;15.57;nan;101573.97;5041545;28;20029;-67
2022/10/06 04:26:11;;;;;;;2.38;1.45;;;;;;;15.51;nan;101576.25;5041492;28;20091;-67
2022/10/06 04:28:37;;;;;;;1.95;1.35;;;;;;;15.47;nan;101579.41;5039258;28;20417;-67
2022/10/06 04:31:05;;;;;;;2.58;1.30;;;;;;;15.43;nan;101580.72;5043375;28;20379;-67
2022/10/06 04:33:33;;;;;;;2.05;1.10;;;;;;;15.43;nan;101584.22;5041056;28;20215;-66
2022/10/06 04:36:01;;;;;;;2.72;1.20;;;;;;;15.41;nan;101583.53;5042750;28;20063;-67
2022/10/06 04:38:30;;;;;;;1.92;1.35;;;;;;;15.39;nan;101580.19;5042818;28;20051;-67
2022/10/06 04:40:56;;;;;;;3.38;1.50;;;;;;;15.37;nan;101586.66;5034561;28;20068;-67
2022/10/06 04:43:22;;;;;;;2.20;1.35;;;;;;;15.36;nan;101590.34;5036800;28;20057;-67
2022/10/06 04:45:55;;;;;;;1.70;1.20;;;;;;;15.32;nan;101596.97;5035081;28;20056;-67
2022/10/06 04:48:20;;;;;;;2.00;1.25;;;;;;;15.28;nan;101597.28;5033225;28;20033;-67
2022/10/06 04:51:01;;;;;;;2.40;1.20;;;;;;;15.24;nan;101601.25;5038753;28;20029;-67
2022/10/06 04:53:28;;;;;;;1.67;1.10;;;;;;;15.19;nan;101614.22;5038108;28;20287;-67
2022/10/06 04:56:00;;;;;;;2.92;1.55;;;;;;;15.16;nan;101605.66;5038929;28;20029;-67
2022/10/06 04:58:30;;;;;;;2.20;1.45;;;;;;;15.13;nan;101608.66;5034699;28;20049;-67
2022/10/06 05:00:55;;;;;;;2.50;1.40;;;;;;;15.11;nan;101615.97;5039985;28;20033;-67
2022/10/06 05:03:20;;;;;;;2.47;1.20;;;;;;;15.10;nan;101617.78;5039495;28;20602;-67
2022/10/06 05:05:46;;;;;;;1.80;1.15;;;;;;;15.10;nan;101616.97;5038518;28;20033;-67
2022/10/06 05:08:11;;;;;;;3.17;1.27;;;;;;;15.07;nan;101624.28;5029120;28;20084;-67
2022/10/06 05:10:36;;;;;;;2.38;1.13;;;;;;;15.05;nan;101628.09;5030463;28;20265;-67
2022/10/06 05:13:02;;;;;;;1.55;0.90;;;;;;;15.03;nan;101633.56;5030546;28;20095;-67
2022/10/06 05:15:28;;;;;;;2.05;1.10;;;;;;;15.01;nan;101634.69;5034921;28;20470;-67
2022/10/06 05:17:53;;;;;;;2.15;1.10;;;;;;;15.00;nan;101641.84;5035503;28;20116;-67
2022/10/06 05:20:21;;;;;;;2.30;1.03;;;;;;;14.99;nan;101634.00;5033336;28;20029;-67
2022/10/06 05:22:47;;;;;;;1.70;0.85;;;;;;;14.96;nan;101651.13;5036866;28;20276;-67
2022/10/06 05:25:12;;;;;;;2.13;0.90;;;;;;;14.97;nan;101649.31;5038141;28;20110;-67
2022/10/06 05:27:37;;;;;;;2.58;0.95;;;;;;;14.95;nan;101646.81;5034925;28;20379;-67
2022/10/06 05:30:03;;;;;;;1.30;0.80;;;;;;;14.98;nan;101657.16;5036026;28;20029;-67
2022/10/06 05:32:28;;;;;;;1.48;0.80;;;;;;;14.99;nan;101661.50;5038167;28;20096;-72
2022/10/06 05:34:53;;;;;;;3.03;0.90;;;;;;;14.97;nan;101673.28;5034816;28;20037;-67
2022/10/06 05:37:19;;;;;;;2.10;1.02;;;;;;;14.95;nan;101672.63;5040437;28;20268;-67
2022/10/06 05:39:45;;;;;;;3.08;1.02;;;;;;;14.95;nan;101672.63;5029453;28;20095;-67
2022/10/06 05:42:10;;;;;;;1.20;0.80;;;;;;;14.94;nan;101671.75;5040455;28;20035;-67
2022/10/06 05:44:36;;;;;;;1.58;0.88;;;;;;;14.95;nan;101676.13;5032462;28;20104;-67
2022/10/06 05:47:01;;;;;;;2.72;0.80;;;;;;;14.95;nan;101677.94;5039531;28;20032;-67
2022/10/06 05:49:26;;;;;;;1.70;0.80;;;;;;;14.93;nan;101686.06;5046964;28;20078;-67
2022/10/06 05:51:52;;;;;;;1.30;0.77;;;;;;;14.90;nan;101694.38;5039757;28;20551;-67
2022/10/06 05:54:17;;;;;;;1.92;1.00;;;;;;;14.91;nan;101697.88;5030309;28;20029;-67
2022/10/06 05:56:43;;;;;;;1.67;0.90;;;;;;;14.90;nan;101698.84;5038680;28;20045;-67
2022/10/06 05:59:08;;;;;;;1.10;0.75;;;;;;;14.90;nan;101705.03;5036739;28;20057;-67
2022/10/06 06:01:41;;;;;;;1.85;0.95;;;;;;;14.90;nan;101706.84;5038498;28;20129;-68
2022/10/06 06:04:09;;;;;;;1.80;0.80;;;;;;;14.90;nan;101718.34;5045398;28;20033;-67
2022/10/06 06:06:40;;;;;;;1.85;0.70;;;;;;;14.90;nan;101722.81;5033843;28;20056;-67
2022/10/06 06:09:08;;;;;;;2.28;0.90;;;;;;;14.91;nan;101725.34;5039646;28;20030;-67
2022/10/06 06:11:37;;;;;;;1.90;0.95;;;;;;;14.97;nan;101734.53;5030956;28;20029;-67
2022/10/06 06:14:06;;;;;;;1.63;0.80;;;;;;;15.01;nan;101741.25;5033254;28;20253;-67
2022/10/06 06:16:31;;;;;;;2.30;0.80;;;;;;;15.07;nan;101743.31;5028836;28;20037;-67
2022/10/06 06:18:58;;;;;;;1.90;0.77;;;;;;;15.16;nan;101749.53;5029189;28;20486;-66
2022/10/06 06:21:24;;;;;;;2.72;0.98;;;;;;;15.24;nan;101746.97;5032202;28;20545;-67
2022/10/06 06:23:49;;;;;;;1.92;0.80;;;;;;;15.32;nan;101757.69;5040989;28;20032;-67
2022/10/06 06:26:29;;;;;;;2.05;0.73;;;;;;;15.38;nan;101756.25;5031742;28;20402;-67
2022/10/06 06:29:01;;;;;;;1.95;0.50;;;;;;;15.45;nan;101774.16;5037282;28;20121;-67
2022/10/06 06:31:28;;;;;;;1.38;0.60;;;;;;;15.47;nan;101768.69;5033397;28;20068;-67
2022/10/06 06:33:55;;;;;;;0.93;0.50;;;;;;;15.52;nan;101771.72;5037411;28;20153;-67
2022/10/06 06:36:26;;;;;;;1.33;0.52;;;;;;;15.56;nan;101770.41;5030514;28;20029;-67
2022/10/06 06:38:54;;;;;;;1.17;0.80;;;;;;;15.58;nan;101783.59;5042845;28;20372;-67
2022/10/06 06:41:26;;;;;;;1.83;0.77;;;;;;;15.65;nan;101787.31;5033333;28;20507;-67
2022/10/06 06:43:52;;;;;;;1.15;0.50;;;;;;;15.71;nan;101789.41;5031256;28;20033;-67
2022/10/06 06:46:19;;;;;;;0.98;0.60;;;;;;;15.75;nan;101803.25;5029476;28;20061;-67
2022/10/06 06:48:46;;;;;;;1.15;0.65;;;;;;;15.85;nan;101804.00;5035530;28;20033;-67
2022/10/06 06:51:12;;;;;;;1.10;0.60;;;;;;;16.03;nan;101803.97;5031573;28;20087;-67
2022/10/06 06:53:40;;;;;;;2.05;0.70;;;;;;;16.20;nan;101810.25;5037737;28;20421;-67
2022/10/06 06:56:07;;;;;;;1.38;0.80;;;;;;;16.42;nan;101828.41;5033847;28;20395;-68
2022/10/06 06:58:35;;;;;;;2.28;1.10;;;;;;;16.67;nan;101832.03;5039737;28;20473;-67
2022/10/06 07:01:12;;;;;;;5.30;1.40;;;;;;;17.06;nan;101826.19;5042704;28;20470;-67
2022/10/06 07:03:42;;;;;;;2.67;1.30;;;;;;;17.40;nan;101823.44;5037448;28;20055;-67
2022/10/06 07:06:09;;;;;;;2.72;1.30;;;;;;;17.76;nan;101825.81;5035376;28;20041;-68
2022/10/06 07:08:53;;;;;;;3.45;1.27;;;;;;;18.18;nan;101829.31;5040296;28;20097;-68
2022/10/06 07:11:25;;;;;;;4.15;1.38;;;;;;;18.42;nan;101826.59;5039777;28;20029;-67
2022/10/06 07:13:54;;;;;;;2.65;1.02;;;;;;;18.41;nan;101830.25;5032909;28;20037;-68
2022/10/06 07:25:06;;;;;;;5.18;1.50;;;;;;;18.01;nan;101855.25;5030513;28;20043;-68
2022/10/06 07:27:43;;;;;;;3.55;1.27;;;;;;;17.90;nan;101863.63;5027761;28;20037;-68
2022/10/06 07:30:22;;;;;;;3.58;1.10;;;;;;;17.76;nan;101865.09;5033258;28;20088;-68
2022/10/06 07:32:49;;;;;;;2.42;1.02;;;;;;;17.57;nan;101872.44;5006832;28;20073;-68
2022/10/06 07:35:15;;;;;;;2.35;0.88;;;;;;;17.50;nan;101882.13;5036092;28;20124;-67
2022/10/06 07:37:41;;;;;;;2.85;1.00;;;;;;;17.46;nan;101883.44;5047622;28;20501;-67
2022/10/06 07:40:08;;;;;;;3.55;1.15;;;;;;;17.54;nan;101893.31;5036302;28;20036;-68
2022/10/06 07:42:46;;;;;;;4.32;1.45;;;;;;;17.56;nan;101899.34;5034694;28;20037;-67
2022/10/06 07:48:00;;;;;;;5.90;1.40;;;;;;;17.59;nan;101905.22;5042764;28;20039;-67
2022/10/06 07:50:25;;;;;;;2.92;1.15;;;;;;;17.39;nan;101901.97;5036199;28;20490;-67
2022/10/06 07:52:50;;;;;;;3.90;1.17;;;;;;;17.25;nan;101904.44;5042448;28;20033;-67
2022/10/06 07:55:16;;;;;;;3.73;1.20;;;;;;;17.02;nan;101910.38;5035011;28;20037;-67
2022/10/06 07:57:44;;;;;;;2.88;1.00;;;;;;;16.86;nan;101907.63;5040780;28;20280;-67
2022/10/06 08:00:14;;;;;;;2.70;0.90;;;;;;;16.71;nan;101916.19;5037252;28;20558;-68
2022/10/06 08:02:39;;;;;;;2.35;1.10;;;;;;;16.65;nan;101918.66;5033747;28;20036;-67
2022/10/06 08:05:06;;;;;;;5.57;1.30;;;;;;;16.59;nan;101904.09;5031583;28;20405;-67
2022/10/06 08:07:31;;;;;;;3.95;1.05;;;;;;;16.65;nan;101910.63;5034228;28;20064;-67
2022/10/06 08:09:56;;;;;;;4.70;1.15;;;;;;;16.67;nan;101912.16;5026518;28;20061;-67
2022/10/06 08:12:36;;;;;;;3.50;0.98;;;;;;;16.81;nan;101913.44;5037379;28;20046;-67
2022/10/06 08:15:06;;;;;;;2.83;1.10;;;;;;;17.56;nan;101923.41;5033363;28;20056;-67
2022/10/06 08:17:32;;;;;;;5.53;1.30;;;;;;;18.35;nan;101924.69;5038650;28;20056;-68
2022/10/06 08:19:58;;;;;;;3.58;0.90;;;;;;;19.18;nan;101931.53;5035387;28;20033;-68
2022/10/06 08:22:28;;;;;;;3.22;0.90;;;;;;;19.88;nan;101929.84;5036439;28;20227;-68
2022/10/06 08:24:54;;;;;;;2.08;0.77;;;;;;;20.64;nan;101932.53;5029355;28;20030;-68
2022/10/06 08:27:22;;;;;;;2.33;0.80;;;;;;;21.33;nan;101943.84;5035677;28;20056;-68
2022/10/06 08:29:47;;;;;;;4.38;1.10;;;;;;;21.27;nan;101949.97;5026458;28;20040;-68
2022/10/06 08:32:12;;;;;;;6.22;1.10;;;;;;;20.98;nan;101938.22;5031944;28;20069;-68
2022/10/06 08:34:38;;;;;;;3.60;1.00;;;;;;;21.29;nan;101941.72;5034356;28;20099;-68
2022/10/06 08:37:03;;;;;;;2.40;0.70;;;;;;;21.60;nan;101942.31;5038251;28;20299;-68
2022/10/06 08:39:31;;;;;;;6.73;0.90;;;;;;;22.19;nan;101935.84;5035466;28;20272;-68
2022/10/06 08:41:57;;;;;;;3.53;1.00;;;;;;;22.43;nan;101937.31;5025171;28;20952;-68
2022/10/06 08:44:44;;;;;;;3.92;1.20;;;;;;;22.99;nan;101947.22;5029905;28;20125;-68
2022/10/06 08:47:17;;;;;;;5.00;1.10;;;;;;;23.53;nan;101951.00;5034749;28;20040;-68
2022/10/06 08:49:47;;;;;;;3.17;1.00;;;;;;;23.24;nan;101938.63;5043498;28;20506;-68
2022/10/06 08:52:40;;;;;;;4.45;1.17;;;;;;;23.23;nan;101945.06;5039147;28;20041;-68
2022/10/06 08:55:15;;;;;;;3.67;1.00;;;;;;;23.66;nan;101952.88;5034006;28;20052;-68
2022/10/06 08:57:53;;;;;;;4.13;1.08;;;;;;;23.95;nan;101955.28;5027905;28;20060;-68
2022/10/06 09:00:18;;;;;;;5.75;1.35;;;;;;;24.40;nan;101945.72;5034829;28;20041;-68
2022/10/06 09:02:46;;;;;;;4.28;1.17;;;;;;;24.27;nan;101960.91;5033554;28;20043;-68
2022/10/06 09:05:22;;;;;;;3.72;1.20;;;;;;;24.16;nan;101954.22;5040355;28;20047;-68
2022/10/06 09:08:18;;;;;;;5.65;1.10;;;;;;;24.53;nan;101957.38;5033513;28;20048;-68
2022/10/06 09:11:09;;;;;;;2.47;1.13;;;;;;;24.88;nan;101964.38;5036693;28;20079;-67
2022/10/06 09:13:44;;;;;;;2.75;1.00;;;;;;;25.72;nan;101968.03;5021453;28;20048;-68
2022/10/06 09:16:16;;;;;;;4.88;1.10;;;;;;;26.42;nan;101968.78;5021763;28;20029;-69
2022/10/06 09:18:54;;;;;;;3.67;1.10;;;;;;;26.71;nan;101961.03;5023010;28;20042;-68
2022/10/06 09:21:38;;;;;;;2.90;1.00;;;;;;;26.88;nan;101963.97;5036549;28;20037;-68
2022/10/06 09:24:11;;;;;;;4.55;1.33;;;;;;;27.03;nan;101969.03;5035326;28;20060;-68
2022/10/06 09:26:42;;;;;;;4.15;1.20;;;;;;;27.01;nan;101973.88;5034721;28;20129;-68
2022/10/06 09:29:08;;;;;;;3.88;1.40;;;;;;;26.18;nan;101981.28;5033264;28;20037;-68
2022/10/06 09:31:40;;;;;;;3.45;1.08;;;;;;;25.81;nan;101981.13;5040076;28;20036;-67
2022/10/06 09:34:34;;;;;;;3.72;1.20;;;;;;;25.50;nan;101983.78;5041491;28;20040;-69
2022/10/06 09:37:09;;;;;;;5.28;1.55;;;;;;;25.07;nan;101984.31;5033268;28;20025;-68
2022/10/06 09:39:37;;;;;;;2.60;0.70;;;;;;;25.17;nan;101980.19;5032593;28;20029;-69
2022/10/06 09:42:10;;;;;;;2.75;0.90;;;;;;;25.52;nan;101984.38;5041438;28;20374;-67
2022/10/06 09:44:59;;;;;;;4.22;0.98;;;;;;;26.31;nan;101988.50;5043767;28;20064;-68
2022/10/06 09:47:44;;;;;;;3.42;1.10;;;;;;;26.78;nan;101986.22;5039044;28;20061;-68
2022/10/06 09:50:21;;;;;;;3.83;1.00;;;;;;;27.20;nan;101983.72;5035598;28;20037;-68
2022/10/06 09:53:02;;;;;;;3.50;1.05;;;;;;;27.50;nan;101991.88;5040861;28;20174;-68
2022/10/06 09:55:36;;;;;;;3.20;1.17;;;;;;;27.77;nan;101993.41;5043919;28;20071;-67
2022/10/06 09:58:14;;;;;;;4.55;1.10;;;;;;;28.00;nan;101992.69;5040661;28;20029;-68
2022/10/06 10:00:47;;;;;;;4.72;1.30;;;;;;;28.04;nan;101989.25;5037902;28;20504;-68
2022/10/06 10:03:12;;;;;;;2.72;1.20;;;;;;;28.27;nan;101990.34;5040966;28;20037;-68
2022/10/06 10:05:46;;;;;;;2.80;1.10;;;;;;;28.93;nan;101989.19;5031040;28;20132;-68
2022/10/06 10:08:20;;;;;;;4.22;1.05;;;;;;;28.25;nan;101987.06;5037002;28;20491;-68
2022/10/06 10:10:46;;;;;;;2.35;0.77;;;;;;;27.49;nan;101989.41;5038055;28;20052;-68
2022/10/06 10:13:23;;;;;;;2.53;0.90;;;;;;;28.86;nan;101988.50;5036994;28;20037;-68
2022/10/06 10:15:57;;;;;;;4.22;1.02;;;;;;;29.46;nan;101989.22;5009253;28;20042;-68
2022/10/06 10:18:26;;;;;;;2.55;0.80;;;;;;;29.70;nan;101989.97;5036992;28;20025;-68
2022/10/06 10:20:56;;;;;;;3.70;1.17;;;;;;;28.37;nan;101983.28;5036416;28;20025;-68
2022/10/06 10:23:35;;;;;;;4.15;1.45;;;;;;;28.52;nan;101985.56;5043222;28;20052;-67
2022/10/06 10:26:25;;;;;;;5.03;1.13;;;;;;;29.71;nan;101986.19;5039129;28;20033;-68
2022/10/06 10:29:02;;;;;;;3.85;1.10;;;;;;;30.18;nan;101986.75;5039257;28;20438;-68
2022/10/06 10:31:47;;;;;;;4.70;1.13;;;;;;;30.60;nan;101990.94;5048239;28;20037;-68
2022/10/06 10:34:30;;;;;;;3.13;1.10;;;;;;;30.63;nan;101987.69;5037460;28;20073;-68
2022/10/06 10:37:07;;;;;;;6.20;1.35;;;;;;;30.39;nan;101992.53;5053303;28;20542;-68
2022/10/06 10:39:40;;;;;;;3.20;1.05;;;;;;;30.53;nan;101993.84;5032325;28;20430;-68
2022/10/06 10:42:27;;;;;;;3.42;0.98;;;;;;;31.30;nan;101992.19;5038363;28;20029;-69
2022/10/06 10:45:06;;;;;;;5.05;1.10;;;;;;;32.29;nan;101990.97;5031880;28;20036;-68
2022/10/06 10:47:37;;;;;;;3.88;1.23;;;;;;;32.86;nan;101985.88;5027711;28;20109;-68
2022/10/06 10:50:18;;;;;;;5.95;1.40;;;;;;;33.92;nan;101990.09;5036938;28;20394;-69
2022/10/06 10:52:51;;;;;;;4.57;1.30;;;;;;;33.68;nan;101989.78;5020092;28;20077;-69
2022/10/06 10:55:33;;;;;;;3.80;1.30;;;;;;;32.09;nan;101988.09;5039080;28;20671;-68
2022/10/06 10:58:21;;;;;;;4.25;1.23;;;;;;;30.47;nan;101987.50;5020569;28;20043;-69
2022/10/06 11:00:52;;;;;;;3.05;1.10;;;;;;;29.18;nan;101994.41;5034495;28;20032;-68
2022/10/06 11:03:17;;;;;;;4.40;1.40;;;;;;;28.87;nan;101995.63;5028573;28;20041;-68
2022/10/06 11:05:57;;;;;;;3.42;1.00;;;;;;;29.19;nan;101993.31;5052228;28;20080;-68
2022/10/06 11:08:35;;;;;;;3.63;1.10;;;;;;;29.59;nan;101988.94;5024230;28;20104;-68
2022/10/06 11:11:07;;;;;;;6.20;1.20;;;;;;;30.05;nan;101992.50;5036473;28;20051;-69
2022/10/06 11:13:44;;;;;;;4.10;0.98;;;;;;;30.39;nan;101990.66;5031651;28;20744;-68
2022/10/06 11:16:36;;;;;;;3.75;1.35;;;;;;;30.94;nan;101993.63;5024591;28;20124;-69
2022/10/06 11:19:23;;;;;;;3.05;1.02;;;;;;;30.37;nan;102003.72;5039025;28;20091;-68
2022/10/06 11:22:01;;;;;;;4.43;1.13;;;;;;;30.72;nan;101997.13;5030891;28;20077;-69
2022/10/06 11:24:46;;;;;;;3.70;1.10;;;;;;;30.09;nan;101993.69;5027353;28;20490;-69
2022/10/06 11:27:29;;;;;;;3.80;1.20;;;;;;;28.96;nan;101994.19;5042322;28;20520;-69
2022/10/06 11:30:15;;;;;;;2.45;0.90;;;;;;;27.78;nan;101993.19;5032249;28;20043;-69
2022/10/06 11:33:19;;;;;;;4.93;0.95;;;;;;;26.30;nan;101986.84;5029909;28;20026;-69
2022/10/06 11:35:47;;;;;;;3.08;0.80;;;;;;;25.77;nan;101979.06;5022124;28;20067;-68
2022/10/06 11:38:12;;;;;;;4.35;1.00;;;;;;;25.04;nan;101982.06;5046029;28;20037;-69
2022/10/06 11:41:12;;;;;;;4.47;1.10;;;;;;;24.56;nan;101973.19;5036768;28;20045;-68
2022/10/06 11:44:22;;;;;;;3.37;1.20;;;;;;;23.91;nan;101967.53;5029633;28;20056;-68
2022/10/06 11:46:50;;;;;;;4.05;0.90;;;;;;;23.56;nan;101972.19;5024351;28;20287;-68
2022/10/06 11:49:27;;;;;;;3.78;1.23;;;;;;;23.12;nan;101973.47;5025553;28;20069;-68
2022/10/06 11:52:16;;;;;;;3.58;0.82;;;;;;;22.85;nan;101967.88;5040943;28;20510;-68
2022/10/06 11:54:55;;;;;;;4.38;1.10;;;;;;;22.31;nan;101973.91;5025730;28;20044;-68
2022/10/06 11:57:20;;;;;;;3.47;0.95;;;;;;;21.92;nan;101975.16;5030567;28;20034;-68
2022/10/06 11:59:46;;;;;;;4.50;0.93;;;;;;;21.51;nan;101964.16;5032737;28;20505;-68
2022/10/06 12:02:31;;;;;;;3.67;1.08;;;;;;;21.27;nan;101962.59;5035930;28;20041;-69
2022/10/06 12:05:09;;;;;;;3.58;0.98;;;;;;;21.14;nan;101961.41;5043018;28;20110;-68
2022/10/06 12:08:00;;;;;;;3.45;1.00;;;;;;;20.94;nan;101961.09;5031328;28;20025;-68
2022/10/06 12:10:32;;;;;;;;;;;;;;;20.89;nan;101951.94;5036444;28;20338;-68